sensor_id;sensor_type;location;lat;lon;timestamp;pressure;altitude;pressure_sealevel;temperature;humidity
64139;BME280;50435;43.700;-79.318;2023-02-18T00:01:43;100789.72;;;-4.00;51.10
64139;BME280;50435;43.700;-79.318;2023-02-18T00:04:11;100801.97;;;-3.76;50.95
64139;BME280;50435;43.700;-79.318;2023-02-18T00:06:38;100806.53;;;-3.71;51.01
64139;BME280;50435;43.700;-79.318;2023-02-18T00:09:06;100808.30;;;-3.87;51.07
64139;BME280;50435;43.700;-79.318;2023-02-18T00:11:34;100817.02;;;-3.89;51.20
64139;BME280;50435;43.700;-79.318;2023-02-18T00:14:06;100821.49;;;-3.79;50.96
64139;BME280;50435;43.700;-79.318;2023-02-18T00:16:35;100828.79;;;-3.88;50.73
64139;BME280;50435;43.700;-79.318;2023-02-18T00:19:05;100825.99;;;-3.93;50.85
64139;BME280;50435;43.700;-79.318;2023-02-18T00:21:34;100827.44;;;-3.91;50.85
64139;BME280;50435;43.700;-79.318;2023-02-18T00:24:02;100830.41;;;-3.98;50.77
64139;BME280;50435;43.700;-79.318;2023-02-18T00:26:30;100831.25;;;-3.83;50.78
64139;BME280;50435;43.700;-79.318;2023-02-18T00:28:57;100838.46;;;-3.84;50.75
64139;BME280;50435;43.700;-79.318;2023-02-18T00:31:29;100834.61;;;-4.08;50.77
64139;BME280;50435;43.700;-79.318;2023-02-18T00:33:58;100841.25;;;-4.06;50.18
64139;BME280;50435;43.700;-79.318;2023-02-18T00:36:27;100845.04;;;-3.99;50.69
64139;BME280;50435;43.700;-79.318;2023-02-18T00:38:57;100845.73;;;-3.85;50.58
64139;BME280;50435;43.700;-79.318;2023-02-18T00:41:27;100847.70;;;-4.24;50.77
64139;BME280;50435;43.700;-79.318;2023-02-18T00:43:55;100850.54;;;-4.09;50.29
64139;BME280;50435;43.700;-79.318;2023-02-18T00:46:23;100846.27;;;-4.20;50.54
64139;BME280;50435;43.700;-79.318;2023-02-18T00:48:51;100845.34;;;-4.11;50.53
64139;BME280;50435;43.700;-79.318;2023-02-18T00:51:19;100851.25;;;-4.06;50.22
64139;BME280;50435;43.700;-79.318;2023-02-18T00:53:46;100847.85;;;-3.92;50.41
64139;BME280;50435;43.700;-79.318;2023-02-18T00:56:14;100856.29;;;-4.28;50.78
64139;BME280;50435;43.700;-79.318;2023-02-18T00:58:41;100857.06;;;-4.05;51.14
64139;BME280;50435;43.700;-79.318;2023-02-18T01:01:10;100852.74;;;-4.13;50.82
64139;BME280;50435;43.700;-79.318;2023-02-18T01:03:39;100864.85;;;-4.16;50.51
64139;BME280;50435;43.700;-79.318;2023-02-18T01:06:07;100859.74;;;-4.00;50.63
64139;BME280;50435;43.700;-79.318;2023-02-18T01:08:36;100867.31;;;-3.84;50.62
64139;BME280;50435;43.700;-79.318;2023-02-18T01:11:05;100878.60;;;-4.27;51.04
64139;BME280;50435;43.700;-79.318;2023-02-18T01:13:34;100883.74;;;-3.91;50.69
64139;BME280;50435;43.700;-79.318;2023-02-18T01:16:02;100887.96;;;-4.47;51.02
64139;BME280;50435;43.700;-79.318;2023-02-18T01:18:30;100893.86;;;-4.32;51.05
64139;BME280;50435;43.700;-79.318;2023-02-18T01:20:57;100895.71;;;-4.26;51.03
64139;BME280;50435;43.700;-79.318;2023-02-18T01:23:25;100895.70;;;-4.38;51.22
64139;BME280;50435;43.700;-79.318;2023-02-18T01:25:53;100899.32;;;-4.53;50.97
64139;BME280;50435;43.700;-79.318;2023-02-18T01:28:20;100903.29;;;-4.07;50.68
64139;BME280;50435;43.700;-79.318;2023-02-18T01:30:48;100904.64;;;-4.27;50.50
64139;BME280;50435;43.700;-79.318;2023-02-18T01:33:16;100912.83;;;-4.13;50.83
64139;BME280;50435;43.700;-79.318;2023-02-18T01:35:43;100914.67;;;-4.40;51.09
64139;BME280;50435;43.700;-79.318;2023-02-18T01:38:11;100917.13;;;-4.72;51.23
64139;BME280;50435;43.700;-79.318;2023-02-18T01:40:45;100918.32;;;-4.25;50.99
64139;BME280;50435;43.700;-79.318;2023-02-18T01:43:14;100922.18;;;-4.45;50.96
64139;BME280;50435;43.700;-79.318;2023-02-18T01:45:51;100916.19;;;-4.24;50.97
64139;BME280;50435;43.700;-79.318;2023-02-18T01:48:25;100919.22;;;-4.35;50.83
64139;BME280;50435;43.700;-79.318;2023-02-18T01:50:57;100918.21;;;-4.33;51.07
64139;BME280;50435;43.700;-79.318;2023-02-18T01:53:29;100920.30;;;-4.77;50.81
64139;BME280;50435;43.700;-79.318;2023-02-18T01:55:58;100926.24;;;-4.54;50.83
64139;BME280;50435;43.700;-79.318;2023-02-18T01:58:26;100925.38;;;-4.32;50.82
64139;BME280;50435;43.700;-79.318;2023-02-18T02:00:54;100932.78;;;-4.37;51.02
64139;BME280;50435;43.700;-79.318;2023-02-18T02:03:21;100931.95;;;-4.56;50.93
64139;BME280;50435;43.700;-79.318;2023-02-18T02:05:49;100930.43;;;-4.68;51.12
64139;BME280;50435;43.700;-79.318;2023-02-18T02:08:16;100936.10;;;-4.27;50.49
64139;BME280;50435;43.700;-79.318;2023-02-18T02:10:58;100937.50;;;-4.35;50.87
64139;BME280;50435;43.700;-79.318;2023-02-18T02:13:42;100935.91;;;-4.45;50.36
64139;BME280;50435;43.700;-79.318;2023-02-18T02:16:14;100937.54;;;-4.37;50.58
64139;BME280;50435;43.700;-79.318;2023-02-18T02:18:56;100944.02;;;-4.65;50.82
64139;BME280;50435;43.700;-79.318;2023-02-18T02:22:28;100936.88;;;-4.61;50.71
64139;BME280;50435;43.700;-79.318;2023-02-18T02:25:13;100941.83;;;-4.60;50.93
64139;BME280;50435;43.700;-79.318;2023-02-18T02:28:05;100944.73;;;-4.58;51.21
64139;BME280;50435;43.700;-79.318;2023-02-18T02:30:47;100953.73;;;-4.54;50.97
64139;BME280;50435;43.700;-79.318;2023-02-18T02:33:41;100960.16;;;-4.48;50.36
64139;BME280;50435;43.700;-79.318;2023-02-18T02:36:14;100964.17;;;-4.48;50.17
64139;BME280;50435;43.700;-79.318;2023-02-18T02:38:52;100968.65;;;-4.60;50.83
64139;BME280;50435;43.700;-79.318;2023-02-18T02:41:36;100969.99;;;-4.34;50.33
64139;BME280;50435;43.700;-79.318;2023-02-18T02:44:13;100983.77;;;-4.52;50.68
64139;BME280;50435;43.700;-79.318;2023-02-18T02:46:46;100986.45;;;-4.72;50.50
64139;BME280;50435;43.700;-79.318;2023-02-18T02:49:22;100987.45;;;-4.60;50.79
64139;BME280;50435;43.700;-79.318;2023-02-18T02:51:57;100993.97;;;-4.67;50.91
64139;BME280;50435;43.700;-79.318;2023-02-18T02:54:27;100999.06;;;-4.51;50.55
64139;BME280;50435;43.700;-79.318;2023-02-18T02:57:05;100994.89;;;-4.66;50.20
64139;BME280;50435;43.700;-79.318;2023-02-18T02:59:34;100996.12;;;-4.59;50.65
64139;BME280;50435;43.700;-79.318;2023-02-18T03:02:17;101000.36;;;-4.63;50.24
64139;BME280;50435;43.700;-79.318;2023-02-18T03:04:58;101002.03;;;-4.54;50.33
64139;BME280;50435;43.700;-79.318;2023-02-18T03:07:40;101006.87;;;-4.78;50.82
64139;BME280;50435;43.700;-79.318;2023-02-18T03:10:24;101010.18;;;-4.87;50.52
64139;BME280;50435;43.700;-79.318;2023-02-18T03:13:04;101009.85;;;-4.65;50.51
64139;BME280;50435;43.700;-79.318;2023-02-18T03:15:39;101014.35;;;-4.57;50.31
64139;BME280;50435;43.700;-79.318;2023-02-18T03:18:17;101020.41;;;-4.76;49.96
64139;BME280;50435;43.700;-79.318;2023-02-18T03:20:54;101019.73;;;-4.73;50.43
64139;BME280;50435;43.700;-79.318;2023-02-18T03:23:26;101021.11;;;-4.90;50.44
64139;BME280;50435;43.700;-79.318;2023-02-18T03:25:56;101022.55;;;-4.74;50.35
64139;BME280;50435;43.700;-79.318;2023-02-18T03:28:28;101022.03;;;-4.80;50.57
64139;BME280;50435;43.700;-79.318;2023-02-18T03:30:59;101027.99;;;-5.02;50.95
64139;BME280;50435;43.700;-79.318;2023-02-18T03:33:31;101024.78;;;-4.83;50.54
64139;BME280;50435;43.700;-79.318;2023-02-18T03:36:02;101032.04;;;-4.90;50.73
64139;BME280;50435;43.700;-79.318;2023-02-18T03:38:34;101031.67;;;-5.03;50.88
64139;BME280;50435;43.700;-79.318;2023-02-18T03:41:05;101028.46;;;-4.90;50.62
64139;BME280;50435;43.700;-79.318;2023-02-18T03:43:33;101033.83;;;-5.12;51.04
64139;BME280;50435;43.700;-79.318;2023-02-18T03:46:00;101029.66;;;-4.94;50.77
64139;BME280;50435;43.700;-79.318;2023-02-18T03:48:29;101039.82;;;-5.08;50.41
64139;BME280;50435;43.700;-79.318;2023-02-18T03:50:56;101038.48;;;-5.15;50.75
64139;BME280;50435;43.700;-79.318;2023-02-18T03:53:24;101038.27;;;-5.08;50.58
64139;BME280;50435;43.700;-79.318;2023-02-18T03:55:51;101034.41;;;-4.88;50.28
64139;BME280;50435;43.700;-79.318;2023-02-18T03:58:19;101039.96;;;-4.95;50.76
64139;BME280;50435;43.700;-79.318;2023-02-18T04:00:46;101034.01;;;-5.04;50.79
64139;BME280;50435;43.700;-79.318;2023-02-18T04:03:14;101029.82;;;-4.94;50.58
64139;BME280;50435;43.700;-79.318;2023-02-18T04:05:42;101026.27;;;-5.10;50.80
64139;BME280;50435;43.700;-79.318;2023-02-18T04:08:09;101032.06;;;-5.19;50.95
64139;BME280;50435;43.700;-79.318;2023-02-18T04:10:37;101031.07;;;-4.98;50.58
64139;BME280;50435;43.700;-79.318;2023-02-18T04:13:05;101032.32;;;-5.07;50.71
64139;BME280;50435;43.700;-79.318;2023-02-18T04:15:32;101032.85;;;-5.02;50.52
64139;BME280;50435;43.700;-79.318;2023-02-18T04:18:00;101034.84;;;-5.12;50.89
64139;BME280;50435;43.700;-79.318;2023-02-18T04:20:27;101044.73;;;-4.93;50.43
64139;BME280;50435;43.700;-79.318;2023-02-18T04:22:55;101050.86;;;-5.12;50.66
64139;BME280;50435;43.700;-79.318;2023-02-18T04:25:22;101057.83;;;-5.55;51.22
64139;BME280;50435;43.700;-79.318;2023-02-18T04:27:50;101060.46;;;-5.14;50.90
64139;BME280;50435;43.700;-79.318;2023-02-18T04:30:18;101058.27;;;-4.96;50.30
64139;BME280;50435;43.700;-79.318;2023-02-18T04:32:45;101058.42;;;-5.04;50.41
64139;BME280;50435;43.700;-79.318;2023-02-18T04:35:13;101064.61;;;-4.83;50.61
64139;BME280;50435;43.700;-79.318;2023-02-18T04:37:40;101063.22;;;-5.04;50.49
64139;BME280;50435;43.700;-79.318;2023-02-18T04:40:09;101061.42;;;-4.96;50.29
64139;BME280;50435;43.700;-79.318;2023-02-18T04:42:36;101062.41;;;-5.17;50.67
64139;BME280;50435;43.700;-79.318;2023-02-18T04:45:05;101060.84;;;-5.07;50.50
64139;BME280;50435;43.700;-79.318;2023-02-18T04:47:32;101058.38;;;-4.47;50.14
64139;BME280;50435;43.700;-79.318;2023-02-18T04:50:00;101062.69;;;-5.33;50.89
64139;BME280;50435;43.700;-79.318;2023-02-18T04:52:27;101069.98;;;-5.03;50.81
64139;BME280;50435;43.700;-79.318;2023-02-18T04:54:55;101067.03;;;-5.31;50.94
64139;BME280;50435;43.700;-79.318;2023-02-18T04:57:22;101059.56;;;-5.13;50.52
64139;BME280;50435;43.700;-79.318;2023-02-18T04:59:50;101060.47;;;-5.01;50.35
64139;BME280;50435;43.700;-79.318;2023-02-18T05:02:17;101053.16;;;-5.07;50.44
64139;BME280;50435;43.700;-79.318;2023-02-18T05:04:45;101053.39;;;-5.16;50.49
64139;BME280;50435;43.700;-79.318;2023-02-18T05:07:12;101059.94;;;-5.18;50.73
64139;BME280;50435;43.700;-79.318;2023-02-18T05:09:40;101056.87;;;-4.67;50.38
64139;BME280;50435;43.700;-79.318;2023-02-18T05:12:08;101066.29;;;-5.25;50.71
64139;BME280;50435;43.700;-79.318;2023-02-18T05:14:35;101070.56;;;-5.30;50.87
64139;BME280;50435;43.700;-79.318;2023-02-18T05:17:03;101072.80;;;-5.20;50.52
64139;BME280;50435;43.700;-79.318;2023-02-18T05:19:30;101082.34;;;-5.38;50.88
64139;BME280;50435;43.700;-79.318;2023-02-18T05:21:58;101081.07;;;-5.42;50.96
64139;BME280;50435;43.700;-79.318;2023-02-18T05:24:25;101079.33;;;-5.29;50.69
64139;BME280;50435;43.700;-79.318;2023-02-18T05:26:53;101080.11;;;-5.58;51.17
64139;BME280;50435;43.700;-79.318;2023-02-18T05:29:21;101078.63;;;-5.41;51.13
64139;BME280;50435;43.700;-79.318;2023-02-18T05:31:48;101083.02;;;-5.07;50.90
64139;BME280;50435;43.700;-79.318;2023-02-18T05:34:16;101079.03;;;-5.44;51.05
64139;BME280;50435;43.700;-79.318;2023-02-18T05:36:43;101080.34;;;-5.35;50.92
64139;BME280;50435;43.700;-79.318;2023-02-18T05:39:11;101077.46;;;-5.35;50.85
64139;BME280;50435;43.700;-79.318;2023-02-18T05:41:38;101076.38;;;-5.36;50.87
64139;BME280;50435;43.700;-79.318;2023-02-18T05:44:06;101079.10;;;-5.36;50.91
64139;BME280;50435;43.700;-79.318;2023-02-18T05:46:34;101077.11;;;-5.00;51.01
64139;BME280;50435;43.700;-79.318;2023-02-18T05:49:01;101071.37;;;-5.41;50.92
64139;BME280;50435;43.700;-79.318;2023-02-18T05:51:29;101070.70;;;-5.39;50.86
64139;BME280;50435;43.700;-79.318;2023-02-18T05:53:57;101067.52;;;-5.25;50.55
64139;BME280;50435;43.700;-79.318;2023-02-18T05:56:24;101075.30;;;-5.27;50.45
64139;BME280;50435;43.700;-79.318;2023-02-18T05:58:52;101080.27;;;-5.16;51.05
64139;BME280;50435;43.700;-79.318;2023-02-18T06:01:19;101087.43;;;-5.14;51.00
64139;BME280;50435;43.700;-79.318;2023-02-18T06:03:47;101100.09;;;-5.09;50.97
64139;BME280;50435;43.700;-79.318;2023-02-18T06:06:14;101098.44;;;-5.14;50.97
64139;BME280;50435;43.700;-79.318;2023-02-18T06:08:42;101094.10;;;-5.47;51.11
64139;BME280;50435;43.700;-79.318;2023-02-18T06:11:09;101096.68;;;-5.61;51.50
64139;BME280;50435;43.700;-79.318;2023-02-18T06:13:37;101096.23;;;-5.53;51.38
64139;BME280;50435;43.700;-79.318;2023-02-18T06:16:05;101089.90;;;-5.40;51.29
64139;BME280;50435;43.700;-79.318;2023-02-18T06:18:32;101097.94;;;-5.48;51.21
64139;BME280;50435;43.700;-79.318;2023-02-18T06:21:00;101091.73;;;-5.33;51.06
64139;BME280;50435;43.700;-79.318;2023-02-18T06:23:27;101092.49;;;-5.21;50.71
64139;BME280;50435;43.700;-79.318;2023-02-18T06:25:55;101082.32;;;-5.23;50.75
64139;BME280;50435;43.700;-79.318;2023-02-18T06:28:23;101081.81;;;-5.21;50.98
64139;BME280;50435;43.700;-79.318;2023-02-18T06:30:50;101088.03;;;-5.18;50.89
64139;BME280;50435;43.700;-79.318;2023-02-18T06:33:18;101080.92;;;-4.80;50.65
64139;BME280;50435;43.700;-79.318;2023-02-18T06:35:53;101072.18;;;-5.05;50.75
64139;BME280;50435;43.700;-79.318;2023-02-18T06:38:21;101068.42;;;-4.90;50.33
64139;BME280;50435;43.700;-79.318;2023-02-18T06:40:48;101057.42;;;-4.89;50.23
64139;BME280;50435;43.700;-79.318;2023-02-18T06:43:16;101055.99;;;-5.00;50.75
64139;BME280;50435;43.700;-79.318;2023-02-18T06:45:44;101067.44;;;-4.97;50.75
64139;BME280;50435;43.700;-79.318;2023-02-18T06:48:12;101072.99;;;-4.86;50.32
64139;BME280;50435;43.700;-79.318;2023-02-18T06:50:40;101067.16;;;-4.94;50.70
64139;BME280;50435;43.700;-79.318;2023-02-18T06:53:07;101067.60;;;-4.85;50.31
64139;BME280;50435;43.700;-79.318;2023-02-18T06:55:35;101076.56;;;-5.06;50.99
64139;BME280;50435;43.700;-79.318;2023-02-18T06:58:02;101076.78;;;-4.98;50.66
64139;BME280;50435;43.700;-79.318;2023-02-18T07:00:30;101072.84;;;-5.04;50.98
64139;BME280;50435;43.700;-79.318;2023-02-18T07:02:57;101070.28;;;-4.78;50.27
64139;BME280;50435;43.700;-79.318;2023-02-18T07:05:25;101071.98;;;-4.86;50.23
64139;BME280;50435;43.700;-79.318;2023-02-18T07:07:53;101075.37;;;-4.89;50.26
64139;BME280;50435;43.700;-79.318;2023-02-18T07:10:20;101083.39;;;-4.82;50.27
64139;BME280;50435;43.700;-79.318;2023-02-18T07:12:48;101079.61;;;-4.86;50.15
64139;BME280;50435;43.700;-79.318;2023-02-18T07:15:16;101079.35;;;-4.86;50.51
64139;BME280;50435;43.700;-79.318;2023-02-18T07:17:44;101076.85;;;-4.90;50.50
64139;BME280;50435;43.700;-79.318;2023-02-18T07:20:11;101072.42;;;-5.14;51.00
64139;BME280;50435;43.700;-79.318;2023-02-18T07:22:39;101078.83;;;-4.78;50.19
64139;BME280;50435;43.700;-79.318;2023-02-18T07:25:07;101074.55;;;-4.66;49.91
64139;BME280;50435;43.700;-79.318;2023-02-18T07:27:34;101066.88;;;-4.82;50.35
64139;BME280;50435;43.700;-79.318;2023-02-18T07:30:02;101062.12;;;-4.95;50.59
64139;BME280;50435;43.700;-79.318;2023-02-18T07:32:30;101059.18;;;-4.57;49.78
64139;BME280;50435;43.700;-79.318;2023-02-18T07:34:58;101048.89;;;-4.94;50.56
64139;BME280;50435;43.700;-79.318;2023-02-18T07:37:25;101045.16;;;-4.66;49.86
64139;BME280;50435;43.700;-79.318;2023-02-18T07:39:53;101042.78;;;-4.85;49.61
64139;BME280;50435;43.700;-79.318;2023-02-18T07:42:20;101041.03;;;-4.42;49.97
64139;BME280;50435;43.700;-79.318;2023-02-18T07:44:48;101036.93;;;-4.93;50.40
64139;BME280;50435;43.700;-79.318;2023-02-18T07:47:16;101029.09;;;-4.78;50.19
64139;BME280;50435;43.700;-79.318;2023-02-18T07:49:45;101033.72;;;-4.94;50.50
64139;BME280;50435;43.700;-79.318;2023-02-18T07:52:13;101025.11;;;-4.82;50.21
64139;BME280;50435;43.700;-79.318;2023-02-18T07:54:41;101021.49;;;-4.94;50.71
64139;BME280;50435;43.700;-79.318;2023-02-18T07:57:09;101015.31;;;-4.86;50.46
64139;BME280;50435;43.700;-79.318;2023-02-18T07:59:36;101025.90;;;-4.70;50.20
64139;BME280;50435;43.700;-79.318;2023-02-18T08:02:04;101036.59;;;-4.76;50.01
64139;BME280;50435;43.700;-79.318;2023-02-18T08:04:31;101036.50;;;-4.94;50.75
64139;BME280;50435;43.700;-79.318;2023-02-18T08:06:59;101043.03;;;-4.65;50.14
64139;BME280;50435;43.700;-79.318;2023-02-18T08:09:26;101040.57;;;-4.66;50.14
64139;BME280;50435;43.700;-79.318;2023-02-18T08:11:54;101034.34;;;-4.63;49.99
64139;BME280;50435;43.700;-79.318;2023-02-18T08:14:22;101027.34;;;-4.84;50.47
64139;BME280;50435;43.700;-79.318;2023-02-18T08:16:49;101019.84;;;-4.87;50.65
64139;BME280;50435;43.700;-79.318;2023-02-18T08:19:17;101014.73;;;-4.70;50.13
64139;BME280;50435;43.700;-79.318;2023-02-18T08:21:44;101007.74;;;-4.70;50.28
64139;BME280;50435;43.700;-79.318;2023-02-18T08:24:12;101019.22;;;-4.70;50.19
64139;BME280;50435;43.700;-79.318;2023-02-18T08:26:39;101015.49;;;-4.76;50.26
64139;BME280;50435;43.700;-79.318;2023-02-18T08:29:07;101014.70;;;-4.88;50.65
64139;BME280;50435;43.700;-79.318;2023-02-18T08:31:35;101013.05;;;-4.73;50.53
64139;BME280;50435;43.700;-79.318;2023-02-18T08:34:03;101005.76;;;-4.92;50.25
64139;BME280;50435;43.700;-79.318;2023-02-18T08:36:31;101006.31;;;-4.89;50.86
64139;BME280;50435;43.700;-79.318;2023-02-18T08:38:58;101007.17;;;-4.81;50.70
64139;BME280;50435;43.700;-79.318;2023-02-18T08:41:25;101009.89;;;-4.68;50.06
64139;BME280;50435;43.700;-79.318;2023-02-18T08:43:53;101001.87;;;-4.83;50.62
64139;BME280;50435;43.700;-79.318;2023-02-18T08:46:21;101006.81;;;-4.50;49.77
64139;BME280;50435;43.700;-79.318;2023-02-18T08:48:48;100995.08;;;-4.62;50.20
64139;BME280;50435;43.700;-79.318;2023-02-18T08:51:18;100996.98;;;-4.79;50.36
64139;BME280;50435;43.700;-79.318;2023-02-18T08:53:46;100995.53;;;-4.94;50.89
64139;BME280;50435;43.700;-79.318;2023-02-18T08:56:14;100990.35;;;-4.88;50.56
64139;BME280;50435;43.700;-79.318;2023-02-18T08:58:42;100991.49;;;-4.77;50.44
64139;BME280;50435;43.700;-79.318;2023-02-18T09:01:11;100986.17;;;-5.04;50.73
64139;BME280;50435;43.700;-79.318;2023-02-18T09:03:39;100975.99;;;-4.65;50.23
64139;BME280;50435;43.700;-79.318;2023-02-18T09:06:07;100982.44;;;-4.33;50.00
64139;BME280;50435;43.700;-79.318;2023-02-18T09:08:35;100981.29;;;-4.55;49.78
64139;BME280;50435;43.700;-79.318;2023-02-18T09:11:04;100991.01;;;-4.64;49.88
64139;BME280;50435;43.700;-79.318;2023-02-18T09:13:32;100992.05;;;-4.74;49.48
64139;BME280;50435;43.700;-79.318;2023-02-18T09:16:02;100988.72;;;-4.69;50.35
64139;BME280;50435;43.700;-79.318;2023-02-18T09:18:31;100981.41;;;-4.61;50.08
64139;BME280;50435;43.700;-79.318;2023-02-18T09:20:59;100983.75;;;-4.77;50.51
64139;BME280;50435;43.700;-79.318;2023-02-18T09:23:29;100987.34;;;-4.60;49.94
64139;BME280;50435;43.700;-79.318;2023-02-18T09:25:57;100987.72;;;-4.63;50.73
64139;BME280;50435;43.700;-79.318;2023-02-18T09:28:25;100988.82;;;-4.71;49.78
64139;BME280;50435;43.700;-79.318;2023-02-18T09:30:52;100981.33;;;-4.87;50.66
64139;BME280;50435;43.700;-79.318;2023-02-18T09:33:20;100984.07;;;-4.84;50.74
64139;BME280;50435;43.700;-79.318;2023-02-18T09:35:47;100986.72;;;-4.73;50.52
64139;BME280;50435;43.700;-79.318;2023-02-18T09:38:16;100982.03;;;-4.78;50.49
64139;BME280;50435;43.700;-79.318;2023-02-18T09:40:46;100981.98;;;-4.63;50.12
64139;BME280;50435;43.700;-79.318;2023-02-18T09:43:23;100978.10;;;-4.75;50.31
64139;BME280;50435;43.700;-79.318;2023-02-18T09:45:55;100977.44;;;-4.71;50.44
64139;BME280;50435;43.700;-79.318;2023-02-18T09:48:26;100973.59;;;-4.85;50.05
64139;BME280;50435;43.700;-79.318;2023-02-18T09:50:55;100980.00;;;-4.56;50.01
64139;BME280;50435;43.700;-79.318;2023-02-18T09:53:23;100967.25;;;-4.45;49.85
64139;BME280;50435;43.700;-79.318;2023-02-18T09:55:52;100967.53;;;-4.74;50.55
64139;BME280;50435;43.700;-79.318;2023-02-18T09:58:24;100961.64;;;-4.45;49.65
64139;BME280;50435;43.700;-79.318;2023-02-18T10:01:01;100959.08;;;-4.44;49.46
64139;BME280;50435;43.700;-79.318;2023-02-18T10:03:30;100962.66;;;-4.52;49.99
64139;BME280;50435;43.700;-79.318;2023-02-18T10:06:01;100963.14;;;-4.28;49.52
64139;BME280;50435;43.700;-79.318;2023-02-18T10:08:32;100964.42;;;-4.46;49.85
64139;BME280;50435;43.700;-79.318;2023-02-18T10:11:01;100962.16;;;-4.47;49.84
64139;BME280;50435;43.700;-79.318;2023-02-18T10:13:31;100972.61;;;-4.50;50.00
64139;BME280;50435;43.700;-79.318;2023-02-18T10:16:00;100966.80;;;-4.57;50.12
64139;BME280;50435;43.700;-79.318;2023-02-18T10:18:30;100966.52;;;-4.35;49.83
64139;BME280;50435;43.700;-79.318;2023-02-18T10:21:05;100967.82;;;-4.70;50.08
64139;BME280;50435;43.700;-79.318;2023-02-18T10:23:36;100971.81;;;-4.88;51.14
64139;BME280;50435;43.700;-79.318;2023-02-18T10:26:08;100974.58;;;-4.51;50.21
64139;BME280;50435;43.700;-79.318;2023-02-18T10:28:37;100975.25;;;-4.63;50.52
64139;BME280;50435;43.700;-79.318;2023-02-18T10:31:07;100981.96;;;-4.44;50.09
64139;BME280;50435;43.700;-79.318;2023-02-18T10:33:38;100974.17;;;-4.50;49.95
64139;BME280;50435;43.700;-79.318;2023-02-18T10:36:22;100972.25;;;-4.57;50.41
64139;BME280;50435;43.700;-79.318;2023-02-18T10:39:21;100974.01;;;-4.64;50.68
64139;BME280;50435;43.700;-79.318;2023-02-18T10:41:59;100967.00;;;-4.51;50.49
64139;BME280;50435;43.700;-79.318;2023-02-18T10:44:38;100969.08;;;-4.35;49.90
64139;BME280;50435;43.700;-79.318;2023-02-18T10:47:17;100964.53;;;-4.59;49.92
64139;BME280;50435;43.700;-79.318;2023-02-18T10:49:56;100955.40;;;-4.43;50.16
64139;BME280;50435;43.700;-79.318;2023-02-18T10:52:27;100962.69;;;-4.40;50.16
64139;BME280;50435;43.700;-79.318;2023-02-18T10:55:00;100966.75;;;-4.23;49.82
64139;BME280;50435;43.700;-79.318;2023-02-18T10:57:28;100965.07;;;-4.67;50.35
64139;BME280;50435;43.700;-79.318;2023-02-18T10:59:59;100965.34;;;-4.36;50.00
64139;BME280;50435;43.700;-79.318;2023-02-18T11:02:29;100961.50;;;-4.26;49.57
64139;BME280;50435;43.700;-79.318;2023-02-18T11:04:59;100962.70;;;-4.46;50.34
64139;BME280;50435;43.700;-79.318;2023-02-18T11:07:33;100958.15;;;-4.70;50.52
64139;BME280;50435;43.700;-79.318;2023-02-18T11:10:09;100952.86;;;-4.39;50.32
64139;BME280;50435;43.700;-79.318;2023-02-18T11:12:44;100950.55;;;-4.49;50.56
64139;BME280;50435;43.700;-79.318;2023-02-18T11:15:19;100943.84;;;-4.68;50.41
64139;BME280;50435;43.700;-79.318;2023-02-18T11:17:49;100944.65;;;-4.36;50.33
64139;BME280;50435;43.700;-79.318;2023-02-18T11:20:25;100946.69;;;-4.26;49.94
64139;BME280;50435;43.700;-79.318;2023-02-18T11:22:57;100940.91;;;-4.27;49.86
64139;BME280;50435;43.700;-79.318;2023-02-18T11:25:27;100948.54;;;-4.43;49.93
64139;BME280;50435;43.700;-79.318;2023-02-18T11:27:59;100940.12;;;-4.38;49.59
64139;BME280;50435;43.700;-79.318;2023-02-18T11:30:32;100937.87;;;-4.18;49.67
64139;BME280;50435;43.700;-79.318;2023-02-18T11:33:03;100933.09;;;-4.43;49.89
64139;BME280;50435;43.700;-79.318;2023-02-18T11:35:33;100936.83;;;-4.30;50.26
64139;BME280;50435;43.700;-79.318;2023-02-18T11:38:03;100936.43;;;-4.16;50.12
64139;BME280;50435;43.700;-79.318;2023-02-18T11:40:42;100935.08;;;-4.09;49.57
64139;BME280;50435;43.700;-79.318;2023-02-18T11:43:12;100932.62;;;-4.09;49.77
64139;BME280;50435;43.700;-79.318;2023-02-18T11:45:41;100935.02;;;-4.52;50.31
64139;BME280;50435;43.700;-79.318;2023-02-18T11:48:15;100934.03;;;-4.16;50.05
64139;BME280;50435;43.700;-79.318;2023-02-18T11:50:44;100929.41;;;-4.01;49.84
64139;BME280;50435;43.700;-79.318;2023-02-18T11:53:27;100920.23;;;-4.16;50.05
64139;BME280;50435;43.700;-79.318;2023-02-18T11:55:56;100910.86;;;-3.90;49.26
64139;BME280;50435;43.700;-79.318;2023-02-18T11:58:25;100897.83;;;-4.08;49.11
64139;BME280;50435;43.700;-79.318;2023-02-18T12:00:55;100882.33;;;-4.29;49.81
64139;BME280;50435;43.700;-79.318;2023-02-18T12:03:32;100880.69;;;-3.93;49.43
64139;BME280;50435;43.700;-79.318;2023-02-18T12:06:04;100873.54;;;-4.12;49.33
64139;BME280;50435;43.700;-79.318;2023-02-18T12:08:44;100881.27;;;-4.16;49.33
64139;BME280;50435;43.700;-79.318;2023-02-18T12:11:21;100886.75;;;-4.34;49.31
64139;BME280;50435;43.700;-79.318;2023-02-18T12:13:55;100887.32;;;-3.92;49.43
64139;BME280;50435;43.700;-79.318;2023-02-18T12:16:30;100886.62;;;-4.15;49.73
64139;BME280;50435;43.700;-79.318;2023-02-18T12:19:12;100889.24;;;-4.04;49.97
64139;BME280;50435;43.700;-79.318;2023-02-18T12:21:53;100898.65;;;-4.15;49.94
64139;BME280;50435;43.700;-79.318;2023-02-18T12:24:36;100905.26;;;-4.30;50.23
64139;BME280;50435;43.700;-79.318;2023-02-18T12:27:11;100914.03;;;-4.07;49.66
64139;BME280;50435;43.700;-79.318;2023-02-18T12:29:56;100912.02;;;-4.14;49.87
64139;BME280;50435;43.700;-79.318;2023-02-18T12:32:36;100915.31;;;-3.86;49.13
64139;BME280;50435;43.700;-79.318;2023-02-18T12:35:27;100919.49;;;-4.08;49.51
64139;BME280;50435;43.700;-79.318;2023-02-18T12:38:11;100926.95;;;-3.90;50.03
64139;BME280;50435;43.700;-79.318;2023-02-18T12:40:59;100922.53;;;-3.87;49.94
64139;BME280;50435;43.700;-79.318;2023-02-18T12:43:39;100924.64;;;-3.82;49.82
64139;BME280;50435;43.700;-79.318;2023-02-18T12:46:23;100910.21;;;-4.02;49.69
64139;BME280;50435;43.700;-79.318;2023-02-18T12:49:08;100912.10;;;-3.51;48.94